sensor_id;sensor_type;location;lat;lon;timestamp;pressure;altitude;pressure_sealevel;temperature;humidity
18652;BME280;9455;54.302;10.124;2022-08-23T00:00:39;101708.09;;;18.68;nan
18652;BME280;9455;54.302;10.124;2022-08-23T00:03:07;101711.28;;;18.63;nan
18652;BME280;9455;54.302;10.124;2022-08-23T00:05:34;101710.78;;;18.60;nan
18652;BME280;9455;54.302;10.124;2022-08-23T00:08:01;101706.03;;;18.54;nan
18652;BME280;9455;54.302;10.124;2022-08-23T00:10:27;101709.38;;;18.56;nan
18652;BME280;9455;54.302;10.124;2022-08-23T00:12:54;101707.28;;;18.42;nan
18652;BME280;9455;54.302;10.124;2022-08-23T00:15:21;101705.94;;;18.38;nan
18652;BME280;9455;54.302;10.124;2022-08-23T00:17:48;101703.66;;;18.33;nan
18652;BME280;9455;54.302;10.124;2022-08-23T00:20:18;101712.19;;;18.38;nan
18652;BME280;9455;54.302;10.124;2022-08-23T00:22:45;101714.28;;;18.27;nan
18652;BME280;9455;54.302;10.124;2022-08-23T00:25:12;101708.22;;;18.25;nan
18652;BME280;9455;54.302;10.124;2022-08-23T00:27:40;101712.91;;;18.23;nan
18652;BME280;9455;54.302;10.124;2022-08-23T00:30:09;101707.16;;;18.18;nan
18652;BME280;9455;54.302;10.124;2022-08-23T00:32:37;101707.78;;;18.12;nan
18652;BME280;9455;54.302;10.124;2022-08-23T00:35:05;101707.38;;;18.07;nan
18652;BME280;9455;54.302;10.124;2022-08-23T00:37:35;101705.69;;;18.06;nan
18652;BME280;9455;54.302;10.124;2022-08-23T00:40:03;101714.97;;;18.03;nan
18652;BME280;9455;54.302;10.124;2022-08-23T00:42:34;101707.38;;;18.07;nan
18652;BME280;9455;54.302;10.124;2022-08-23T00:45:26;101701.47;;;18.03;nan
18652;BME280;9455;54.302;10.124;2022-08-23T00:48:13;101703.00;;;18.06;nan
18652;BME280;9455;54.302;10.124;2022-08-23T00:50:43;101709.63;;;18.11;nan
18652;BME280;9455;54.302;10.124;2022-08-23T00:53:16;101707.03;;;18.02;nan
18652;BME280;9455;54.302;10.124;2022-08-23T00:55:47;101715.66;;;18.05;nan
18652;BME280;9455;54.302;10.124;2022-08-23T00:58:17;101706.03;;;18.03;nan
18652;BME280;9455;54.302;10.124;2022-08-23T01:00:44;101702.97;;;17.98;nan
18652;BME280;9455;54.302;10.124;2022-08-23T01:03:11;101702.97;;;17.98;nan
18652;BME280;9455;54.302;10.124;2022-08-23T01:05:44;101700.09;;;17.99;nan
18652;BME280;9455;54.302;10.124;2022-08-23T01:08:12;101694.78;;;17.90;nan
18652;BME280;9455;54.302;10.124;2022-08-23T01:10:44;101693.34;;;17.95;nan
18652;BME280;9455;54.302;10.124;2022-08-23T01:13:16;101698.34;;;17.90;nan
18652;BME280;9455;54.302;10.124;2022-08-23T01:15:48;101690.63;;;17.95;nan
18652;BME280;9455;54.302;10.124;2022-08-23T01:18:18;101697.56;;;17.98;nan
18652;BME280;9455;54.302;10.124;2022-08-23T01:20:49;101701.50;;;17.86;nan
18652;BME280;9455;54.302;10.124;2022-08-23T01:23:36;101705.28;;;17.93;nan
18652;BME280;9455;54.302;10.124;2022-08-23T01:26:06;101708.63;;;17.87;nan
18652;BME280;9455;54.302;10.124;2022-08-23T01:28:33;101710.56;;;17.77;nan
18652;BME280;9455;54.302;10.124;2022-08-23T01:31:01;101714.03;;;17.69;nan
18652;BME280;9455;54.302;10.124;2022-08-23T01:33:28;101707.88;;;17.59;nan
18652;BME280;9455;54.302;10.124;2022-08-23T01:35:56;101709.81;;;17.67;nan
18652;BME280;9455;54.302;10.124;2022-08-23T01:38:24;101718.81;;;17.58;nan
18652;BME280;9455;54.302;10.124;2022-08-23T01:40:52;101714.13;;;17.60;nan
18652;BME280;9455;54.302;10.124;2022-08-23T01:43:20;101714.94;;;17.60;nan
18652;BME280;9455;54.302;10.124;2022-08-23T01:45:49;101715.50;;;17.64;nan
18652;BME280;9455;54.302;10.124;2022-08-23T01:48:17;101706.19;;;17.58;nan
18652;BME280;9455;54.302;10.124;2022-08-23T01:50:44;101712.03;;;17.54;nan
18652;BME280;9455;54.302;10.124;2022-08-23T01:53:12;101710.19;;;17.54;nan
18652;BME280;9455;54.302;10.124;2022-08-23T01:55:41;101712.41;;;17.59;nan
18652;BME280;9455;54.302;10.124;2022-08-23T01:58:10;101714.72;;;17.54;nan
18652;BME280;9455;54.302;10.124;2022-08-23T02:00:38;101712.91;;;17.54;nan
18652;BME280;9455;54.302;10.124;2022-08-23T02:03:07;101711.72;;;17.57;nan
18652;BME280;9455;54.302;10.124;2022-08-23T02:05:34;101709.66;;;17.51;nan
18652;BME280;9455;54.302;10.124;2022-08-23T02:08:02;101708.78;;;17.50;nan
18652;BME280;9455;54.302;10.124;2022-08-23T02:10:42;101715.75;;;17.53;nan
18652;BME280;9455;54.302;10.124;2022-08-23T02:13:10;101712.03;;;17.54;nan
18652;BME280;9455;54.302;10.124;2022-08-23T02:15:41;101709.66;;;17.51;nan
18652;BME280;9455;54.302;10.124;2022-08-23T02:18:07;101711.34;;;17.52;nan
18652;BME280;9455;54.302;10.124;2022-08-23T02:20:35;101713.34;;;17.50;nan
18652;BME280;9455;54.302;10.124;2022-08-23T02:23:02;101709.34;;;17.54;nan
18652;BME280;9455;54.302;10.124;2022-08-23T02:25:29;101711.34;;;17.52;nan
18652;BME280;9455;54.302;10.124;2022-08-23T02:27:55;101708.28;;;17.47;nan
18652;BME280;9455;54.302;10.124;2022-08-23T02:30:23;101711.59;;;17.58;nan
18652;BME280;9455;54.302;10.124;2022-08-23T02:32:50;101705.94;;;17.52;nan
18652;BME280;9455;54.302;10.124;2022-08-23T02:35:16;101709.03;;;17.57;nan
18652;BME280;9455;54.302;10.124;2022-08-23T02:37:43;101703.63;;;17.57;nan
18652;BME280;9455;54.302;10.124;2022-08-23T02:40:10;101711.78;;;17.65;nan
18652;BME280;9455;54.302;10.124;2022-08-23T02:42:36;101707.47;;;17.72;nan
18652;BME280;9455;54.302;10.124;2022-08-23T02:45:04;101710.16;;;17.72;nan
18652;BME280;9455;54.302;10.124;2022-08-23T02:47:34;101709.81;;;17.67;nan
18652;BME280;9455;54.302;10.124;2022-08-23T02:50:02;101708.28;;;17.64;nan
18652;BME280;9455;54.302;10.124;2022-08-23T02:52:29;101708.09;;;17.66;nan
18652;BME280;9455;54.302;10.124;2022-08-23T02:54:56;101716.56;;;17.71;nan
18652;BME280;9455;54.302;10.124;2022-08-23T02:57:22;101713.72;;;17.72;nan
18652;BME280;9455;54.302;10.124;2022-08-23T02:59:49;101708.84;;;17.76;nan
18652;BME280;9455;54.302;10.124;2022-08-23T03:02:16;101720.19;;;17.79;nan
18652;BME280;9455;54.302;10.124;2022-08-23T03:04:44;101718.25;;;17.72;nan
18652;BME280;9455;54.302;10.124;2022-08-23T03:07:11;101710.47;;;17.69;nan
18652;BME280;9455;54.302;10.124;2022-08-23T03:09:38;101712.88;;;17.72;nan
18652;BME280;9455;54.302;10.124;2022-08-23T03:12:05;101711.78;;;17.65;nan
18652;BME280;9455;54.302;10.124;2022-08-23T03:14:31;101715.97;;;17.77;nan
18652;BME280;9455;54.302;10.124;2022-08-23T03:16:58;101714.63;;;17.81;nan
18652;BME280;9455;54.302;10.124;2022-08-23T03:19:24;101714.09;;;17.77;nan
18652;BME280;9455;54.302;10.124;2022-08-23T03:21:52;101718.81;;;17.75;nan
18652;BME280;9455;54.302;10.124;2022-08-23T03:24:19;101719.47;;;17.77;nan
18652;BME280;9455;54.302;10.124;2022-08-23T03:26:45;101717.34;;;17.81;nan
18652;BME280;9455;54.302;10.124;2022-08-23T03:29:12;101728.94;;;17.81;nan
18652;BME280;9455;54.302;10.124;2022-08-23T03:31:39;101728.28;;;17.79;nan
18652;BME280;9455;54.302;10.124;2022-08-23T03:34:06;101731.84;;;17.80;nan
18652;BME280;9455;54.302;10.124;2022-08-23T03:36:32;101731.28;;;17.76;nan
18652;BME280;9455;54.302;10.124;2022-08-23T03:39:00;101731.50;;;17.83;nan
18652;BME280;9455;54.302;10.124;2022-08-23T03:41:28;101729.06;;;17.72;nan
18652;BME280;9455;54.302;10.124;2022-08-23T03:43:54;101738.63;;;17.84;nan
18652;BME280;9455;54.302;10.124;2022-08-23T03:46:21;101737.75;;;17.83;nan
18652;BME280;9455;54.302;10.124;2022-08-23T03:48:53;101738.63;;;17.84;nan
18652;BME280;9455;54.302;10.124;2022-08-23T03:51:21;101731.91;;;17.88;nan
18652;BME280;9455;54.302;10.124;2022-08-23T03:53:48;101736.97;;;17.91;nan
18652;BME280;9455;54.302;10.124;2022-08-23T03:56:24;101736.44;;;17.87;nan
18652;BME280;9455;54.302;10.124;2022-08-23T03:58:52;101736.44;;;17.87;nan
18652;BME280;9455;54.302;10.124;2022-08-23T04:01:19;101735.97;;;17.92;nan
18652;BME280;9455;54.302;10.124;2022-08-23T04:03:45;101740.66;;;17.90;nan
18652;BME280;9455;54.302;10.124;2022-08-23T04:06:13;101736.97;;;17.91;nan
18652;BME280;9455;54.302;10.124;2022-08-23T04:08:39;101751.53;;;17.98;nan
18652;BME280;9455;54.302;10.124;2022-08-23T04:11:06;101749.81;;;17.97;nan
18652;BME280;9455;54.302;10.124;2022-08-23T04:13:34;101759.09;;;17.94;nan
18652;BME280;9455;54.302;10.124;2022-08-23T04:16:02;101755.22;;;17.97;nan
18652;BME280;9455;54.302;10.124;2022-08-23T04:18:29;101753.84;;;17.93;nan
18652;BME280;9455;54.302;10.124;2022-08-23T04:20:57;101758.25;;;17.94;nan
18652;BME280;9455;54.302;10.124;2022-08-23T04:23:24;101759.19;;;18.02;nan
18652;BME280;9455;54.302;10.124;2022-08-23T04:25:52;101758.31;;;18.02;nan
18652;BME280;9455;54.302;10.124;2022-08-23T04:28:19;101765.19;;;17.96;nan
18652;BME280;9455;54.302;10.124;2022-08-23T04:30:47;101757.31;;;18.03;nan
18652;BME280;9455;54.302;10.124;2022-08-23T04:33:15;101758.47;;;18.00;nan
18652;BME280;9455;54.302;10.124;2022-08-23T04:35:42;101763.94;;;18.08;nan
18652;BME280;9455;54.302;10.124;2022-08-23T04:38:09;101763.09;;;18.08;nan
18652;BME280;9455;54.302;10.124;2022-08-23T04:40:36;101763.09;;;18.08;nan
18652;BME280;9455;54.302;10.124;2022-08-23T04:43:20;101761.38;;;18.07;nan
18652;BME280;9455;54.302;10.124;2022-08-23T04:45:48;101761.69;;;18.04;nan
18652;BME280;9455;54.302;10.124;2022-08-23T04:48:14;101767.00;;;18.13;nan
18652;BME280;9455;54.302;10.124;2022-08-23T04:50:41;101766.63;;;18.08;nan
18652;BME280;9455;54.302;10.124;2022-08-23T04:53:08;101769.31;;;18.08;nan
18652;BME280;9455;54.302;10.124;2022-08-23T04:55:35;101765.63;;;18.09;nan
18652;BME280;9455;54.302;10.124;2022-08-23T04:58:03;101777.81;;;18.13;nan
18652;BME280;9455;54.302;10.124;2022-08-23T05:00:30;101775.56;;;18.09;nan
18652;BME280;9455;54.302;10.124;2022-08-23T05:02:58;101767.22;;;18.20;nan
18652;BME280;9455;54.302;10.124;2022-08-23T05:05:25;101770.06;;;18.18;nan
18652;BME280;9455;54.302;10.124;2022-08-23T05:07:52;101764.69;;;18.18;nan
18652;BME280;9455;54.302;10.124;2022-08-23T05:10:19;101771.44;;;18.22;nan
18652;BME280;9455;54.302;10.124;2022-08-23T05:12:46;101781.44;;;18.22;nan
18652;BME280;9455;54.302;10.124;2022-08-23T05:15:12;101778.72;;;18.22;nan
18652;BME280;9455;54.302;10.124;2022-08-23T05:17:39;101785.19;;;18.29;nan
18652;BME280;9455;54.302;10.124;2022-08-23T05:20:08;101791.69;;;18.36;nan
18652;BME280;9455;54.302;10.124;2022-08-23T05:22:38;101786.94;;;18.38;nan
18652;BME280;9455;54.302;10.124;2022-08-23T05:25:05;101791.72;;;18.44;nan
18652;BME280;9455;54.302;10.124;2022-08-23T05:27:32;101795.16;;;18.54;nan
18652;BME280;9455;54.302;10.124;2022-08-23T05:29:58;101800.72;;;18.52;nan
18652;BME280;9455;54.302;10.124;2022-08-23T05:32:25;101796.53;;;18.58;nan
18652;BME280;9455;54.302;10.124;2022-08-23T05:34:52;101802.66;;;18.60;nan
18652;BME280;9455;54.302;10.124;2022-08-23T05:37:20;101802.16;;;18.64;nan
18652;BME280;9455;54.302;10.124;2022-08-23T05:39:46;101800.31;;;18.65;nan
18652;BME280;9455;54.302;10.124;2022-08-23T05:42:15;101807.75;;;18.63;nan
18652;BME280;9455;54.302;10.124;2022-08-23T05:44:42;101809.84;;;18.77;nan
18652;BME280;9455;54.302;10.124;2022-08-23T05:47:10;101807.94;;;18.69;nan
18652;BME280;9455;54.302;10.124;2022-08-23T05:49:38;101807.13;;;18.77;nan
18652;BME280;9455;54.302;10.124;2022-08-23T05:52:07;101806.13;;;18.78;nan
18652;BME280;9455;54.302;10.124;2022-08-23T05:54:35;101812.03;;;18.81;nan
18652;BME280;9455;54.302;10.124;2022-08-23T05:57:02;101813.63;;;18.92;nan
18652;BME280;9455;54.302;10.124;2022-08-23T05:59:29;101816.53;;;18.98;nan
18652;BME280;9455;54.302;10.124;2022-08-23T06:01:56;101821.59;;;19.01;nan
18652;BME280;9455;54.302;10.124;2022-08-23T06:04:23;101817.88;;;19.02;nan
18652;BME280;9455;54.302;10.124;2022-08-23T06:06:49;101818.75;;;19.03;nan
18652;BME280;9455;54.302;10.124;2022-08-23T06:09:16;101818.78;;;19.11;nan
18652;BME280;9455;54.302;10.124;2022-08-23T06:11:46;101811.84;;;19.08;nan
18652;BME280;9455;54.302;10.124;2022-08-23T06:14:13;101813.88;;;19.07;nan
18652;BME280;9455;54.302;10.124;2022-08-23T06:16:43;101820.81;;;19.09;nan
18652;BME280;9455;54.302;10.124;2022-08-23T06:19:11;101825.03;;;19.12;nan
18652;BME280;9455;54.302;10.124;2022-08-23T06:21:38;101825.34;;;19.08;nan
18652;BME280;9455;54.302;10.124;2022-08-23T06:24:06;101826.22;;;19.09;nan
18652;BME280;9455;54.302;10.124;2022-08-23T06:26:35;101824.19;;;19.11;nan
18652;BME280;9455;54.302;10.124;2022-08-23T06:29:06;101831.00;;;19.23;nan
18652;BME280;9455;54.302;10.124;2022-08-23T06:31:33;101835.97;;;19.28;nan
18652;BME280;9455;54.302;10.124;2022-08-23T06:34:16;101842.91;;;19.30;nan
18652;BME280;9455;54.302;10.124;2022-08-23T06:36:43;101843.56;;;19.32;nan
18652;BME280;9455;54.302;10.124;2022-08-23T06:39:12;101840.69;;;19.34;nan
18652;BME280;9455;54.302;10.124;2022-08-23T06:41:39;101836.47;;;19.39;nan
18652;BME280;9455;54.302;10.124;2022-08-23T06:44:07;101843.63;;;19.40;nan
18652;BME280;9455;54.302;10.124;2022-08-23T06:46:35;101846.00;;;19.43;nan
18652;BME280;9455;54.302;10.124;2022-08-23T06:49:03;101843.63;;;19.48;nan
18652;BME280;9455;54.302;10.124;2022-08-23T06:51:32;101846.34;;;19.48;nan
18652;BME280;9455;54.302;10.124;2022-08-23T06:54:01;101842.97;;;19.54;nan
18652;BME280;9455;54.302;10.124;2022-08-23T06:56:28;101842.13;;;19.54;nan
18652;BME280;9455;54.302;10.124;2022-08-23T06:58:55;101844.34;;;19.66;nan
18652;BME280;9455;54.302;10.124;2022-08-23T07:01:29;101836.44;;;19.73;nan
18652;BME280;9455;54.302;10.124;2022-08-23T07:03:58;101838.13;;;19.74;nan
18652;BME280;9455;54.302;10.124;2022-08-23T07:06:27;101836.59;;;19.71;nan
18652;BME280;9455;54.302;10.124;2022-08-23T07:08:54;101839.31;;;19.71;nan
18652;BME280;9455;54.302;10.124;2022-08-23T07:11:21;101836.09;;;19.76;nan
18652;BME280;9455;54.302;10.124;2022-08-23T07:13:48;101846.06;;;19.83;nan
18652;BME280;9455;54.302;10.124;2022-08-23T07:16:15;101850.31;;;19.86;nan
18652;BME280;9455;54.302;10.124;2022-08-23T07:18:44;101851.84;;;19.88;nan
18652;BME280;9455;54.302;10.124;2022-08-23T07:21:11;101854.56;;;19.96;nan
18652;BME280;9455;54.302;10.124;2022-08-23T07:23:38;101851.84;;;20.04;nan
18652;BME280;9455;54.302;10.124;2022-08-23T07:26:08;101848.47;;;20.10;nan
18652;BME280;9455;54.302;10.124;2022-08-23T07:28:35;101849.22;;;20.12;nan
18652;BME280;9455;54.302;10.124;2022-08-23T07:31:06;101844.28;;;20.24;nan
18652;BME280;9455;54.302;10.124;2022-08-23T07:33:35;101845.13;;;20.32;nan
18652;BME280;9455;54.302;10.124;2022-08-23T07:36:04;101850.19;;;20.35;nan
18652;BME280;9455;54.302;10.124;2022-08-23T07:38:32;101843.44;;;20.47;nan
18652;BME280;9455;54.302;10.124;2022-08-23T07:40:59;101845.81;;;20.50;nan
18652;BME280;9455;54.302;10.124;2022-08-23T07:43:26;101853.75;;;20.60;nan
18652;BME280;9455;54.302;10.124;2022-08-23T07:45:52;101855.09;;;20.64;nan
18652;BME280;9455;54.302;10.124;2022-08-23T07:48:19;101857.13;;;20.70;nan
18652;BME280;9455;54.302;10.124;2022-08-23T07:50:50;101861.00;;;20.75;nan
18652;BME280;9455;54.302;10.124;2022-08-23T07:53:19;101868.47;;;20.81;nan
18652;BME280;9455;54.302;10.124;2022-08-23T07:55:46;101861.13;;;20.90;nan
18652;BME280;9455;54.302;10.124;2022-08-23T07:58:13;101869.44;;;21.04;nan
18652;BME280;9455;54.302;10.124;2022-08-23T08:00:39;101859.09;;;21.08;nan
18652;BME280;9455;54.302;10.124;2022-08-23T08:03:06;101863.97;;;21.20;nan
18652;BME280;9455;54.302;10.124;2022-08-23T08:05:33;101862.41;;;21.26;nan
18652;BME280;9455;54.302;10.124;2022-08-23T08:08:00;101857.28;;;21.31;nan
18652;BME280;9455;54.302;10.124;2022-08-23T08:10:28;101860.47;;;21.42;nan
18652;BME280;9455;54.302;10.124;2022-08-23T08:12:55;101866.47;;;21.60;nan
18652;BME280;9455;54.302;10.124;2022-08-23T08:15:22;101854.97;;;21.50;nan
18652;BME280;9455;54.302;10.124;2022-08-23T08:17:49;101863.94;;;21.59;nan
18652;BME280;9455;54.302;10.124;2022-08-23T08:20:16;101864.31;;;21.56;nan
18652;BME280;9455;54.302;10.124;2022-08-23T08:22:44;101867.44;;;21.67;nan
18652;BME280;9455;54.302;10.124;2022-08-23T08:25:12;101875.25;;;21.79;nan
18652;BME280;9455;54.302;10.124;2022-08-23T08:27:40;101872.81;;;21.84;nan
18652;BME280;9455;54.302;10.124;2022-08-23T08:30:08;101873.28;;;21.95;nan
18652;BME280;9455;54.302;10.124;2022-08-23T08:32:36;101864.00;;;21.82;nan
18652;BME280;9455;54.302;10.124;2022-08-23T08:35:03;101870.78;;;21.86;nan
18652;BME280;9455;54.302;10.124;2022-08-23T08:37:30;101866.81;;;21.96;nan
18652;BME280;9455;54.302;10.124;2022-08-23T08:39:57;101870.41;;;21.89;nan
18652;BME280;9455;54.302;10.124;2022-08-23T08:42:37;101864.63;;;21.92;nan
18652;BME280;9455;54.302;10.124;2022-08-23T08:45:11;101869.16;;;21.99;nan
18652;BME280;9455;54.302;10.124;2022-08-23T08:47:44;101868.63;;;22.04;nan
18652;BME280;9455;54.302;10.124;2022-08-23T08:50:18;101863.44;;;22.17;nan
18652;BME280;9455;54.302;10.124;2022-08-23T08:52:51;101866.34;;;22.15;nan
18652;BME280;9455;54.302;10.124;2022-08-23T08:55:24;101865.56;;;22.07;nan
18652;BME280;9455;54.302;10.124;2022-08-23T08:57:51;101867.94;;;22.02;nan
18652;BME280;9455;54.302;10.124;2022-08-23T09:00:24;101861.53;;;21.95;nan
18652;BME280;9455;54.302;10.124;2022-08-23T09:02:51;101868.13;;;22.00;nan
18652;BME280;9455;54.302;10.124;2022-08-23T09:05:23;101866.97;;;21.95;nan
18652;BME280;9455;54.302;10.124;2022-08-23T09:08:01;101876.09;;;22.02;nan
18652;BME280;9455;54.302;10.124;2022-08-23T09:10:44;101876.41;;;22.07;nan
18652;BME280;9455;54.302;10.124;2022-08-23T09:13:36;101873.69;;;22.07;nan
18652;BME280;9455;54.302;10.124;2022-08-23T09:16:19;101874.06;;;22.04;nan
18652;BME280;9455;54.302;10.124;2022-08-23T09:18:50;101885.41;;;22.07;nan
18652;BME280;9455;54.302;10.124;2022-08-23T09:21:19;101880.31;;;22.27;nan
18652;BME280;9455;54.302;10.124;2022-08-23T09:23:48;101885.81;;;22.19;nan
18652;BME280;9455;54.302;10.124;2022-08-23T09:26:19;101883.59;;;22.22;nan
18652;BME280;9455;54.302;10.124;2022-08-23T09:28:48;101883.03;;;22.27;nan
18652;BME280;9455;54.302;10.124;2022-08-23T09:31:36;101878.28;;;22.29;nan
18652;BME280;9455;54.302;10.124;2022-08-23T09:34:03;101875.75;;;22.27;nan
18652;BME280;9455;54.302;10.124;2022-08-23T09:36:31;101874.97;;;22.19;nan
18652;BME280;9455;54.302;10.124;2022-08-23T09:39:02;101872.38;;;22.25;nan
18652;BME280;9455;54.302;10.124;2022-08-23T09:41:32;101881.66;;;22.31;nan
18652;BME280;9455;54.302;10.124;2022-08-23T09:44:01;101866.09;;;22.25;nan
18652;BME280;9455;54.302;10.124;2022-08-23T09:46:30;101864.25;;;22.40;nan
18652;BME280;9455;54.302;10.124;2022-08-23T09:49:20;101867.03;;;22.32;nan
18652;BME280;9455;54.302;10.124;2022-08-23T09:51:49;101870.63;;;22.47;nan
18652;BME280;9455;54.302;10.124;2022-08-23T09:54:18;101863.00;;;22.50;nan
18652;BME280;9455;54.302;10.124;2022-08-23T09:56:51;101857.03;;;22.55;nan
18652;BME280;9455;54.302;10.124;2022-08-23T09:59:21;101864.25;;;22.62;nan
18652;BME280;9455;54.302;10.124;2022-08-23T10:01:53;101867.03;;;22.54;nan
18652;BME280;9455;54.302;10.124;2022-08-23T10:04:25;101865.56;;;22.66;nan
18652;BME280;9455;54.302;10.124;2022-08-23T10:06:55;101869.72;;;22.77;nan
18652;BME280;9455;54.302;10.124;2022-08-23T10:09:25;101857.44;;;22.81;nan
18652;BME280;9455;54.302;10.124;2022-08-23T10:11:54;101854.13;;;22.71;nan
18652;BME280;9455;54.302;10.124;2022-08-23T10:14:22;101859.09;;;22.67;nan
18652;BME280;9455;54.302;10.124;2022-08-23T10:16:59;101861.63;;;22.83;nan
18652;BME280;9455;54.302;10.124;2022-08-23T10:19:39;101857.31;;;22.89;nan
18652;BME280;9455;54.302;10.124;2022-08-23T10:22:13;101853.41;;;22.91;nan
18652;BME280;9455;54.302;10.124;2022-08-23T10:24:46;101856.50;;;23.03;nan
18652;BME280;9455;54.302;10.124;2022-08-23T10:27:34;101855.38;;;22.97;nan
18652;BME280;9455;54.302;10.124;2022-08-23T10:30:22;101854.94;;;23.23;nan
18652;BME280;9455;54.302;10.124;2022-08-23T10:32:58;101853.22;;;23.07;nan
18652;BME280;9455;54.302;10.124;2022-08-23T10:35:37;101845.22;;;23.06;nan
18652;BME280;9455;54.302;10.124;2022-08-23T10:38:31;101851.91;;;23.03;nan
18652;BME280;9455;54.302;10.124;2022-08-23T10:41:05;101849.66;;;23.07;nan
18652;BME280;9455;54.302;10.124;2022-08-23T10:43:39;101851.25;;;23.16;nan
18652;BME280;9455;54.302;10.124;2022-08-23T10:46:10;101848.16;;;23.19;nan
18652;BME280;9455;54.302;10.124;2022-08-23T10:48:43;101848.16;;;23.33;nan
18652;BME280;9455;54.302;10.124;2022-08-23T10:51:19;101850.09;;;23.54;nan
18652;BME280;9455;54.302;10.124;2022-08-23T10:53:57;101853.56;;;23.48;nan
18652;BME280;9455;54.302;10.124;2022-08-23T10:56:27;101848.97;;;23.48;nan
18652;BME280;9455;54.302;10.124;2022-08-23T10:58:56;101852.06;;;23.45;nan
18652;BME280;9455;54.302;10.124;2022-08-23T11:01:28;101844.97;;;23.44;nan
18652;BME280;9455;54.302;10.124;2022-08-23T11:04:01;101847.06;;;23.63;nan
18652;BME280;9455;54.302;10.124;2022-08-23T11:06:43;101846.41;;;23.61;nan
18652;BME280;9455;54.302;10.124;2022-08-23T11:12:26;101850.78;;;23.77;nan
18652;BME280;9455;54.302;10.124;2022-08-23T11:15:03;101842.53;;;23.70;nan
18652;BME280;9455;54.302;10.124;2022-08-23T11:17:33;101840.66;;;23.71;nan
18652;BME280;9455;54.302;10.124;2022-08-23T11:20:06;101835.81;;;23.87;nan
18652;BME280;9455;54.302;10.124;2022-08-23T11:23:12;101838.34;;;23.89;nan
18652;BME280;9455;54.302;10.124;2022-08-23T11:25:41;101838.91;;;23.84;nan
18652;BME280;9455;54.302;10.124;2022-08-23T11:28:29;101833.03;;;23.81;nan
18652;BME280;9455;54.302;10.124;2022-08-23T11:31:19;101841.03;;;24.03;nan
18652;BME280;9455;54.302;10.124;2022-08-23T11:33:48;101825.47;;;23.97;nan
18652;BME280;9455;54.302;10.124;2022-08-23T11:36:18;101831.91;;;24.11;nan
18652;BME280;9455;54.302;10.124;2022-08-23T11:39:17;101824.00;;;24.23;nan
18652;BME280;9455;54.302;10.124;2022-08-23T11:42:02;101831.94;;;24.18;nan
18652;BME280;9455;54.302;10.124;2022-08-23T11:44:36;101831.47;;;24.14;nan
18652;BME280;9455;54.302;10.124;2022-08-23T11:47:06;101827.84;;;24.49;nan
18652;BME280;9455;54.302;10.124;2022-08-23T11:53:03;101823.94;;;24.37;nan
18652;BME280;9455;54.302;10.124;2022-08-23T11:55:55;101825.00;;;24.36;nan
18652;BME280;9455;54.302;10.124;2022-08-23T11:58:41;101835.41;;;24.54;nan
18652;BME280;9455;54.302;10.124;2022-08-23T12:01:12;101835.75;;;24.44;nan
18652;BME280;9455;54.302;10.124;2022-08-23T12:03:53;101833.47;;;24.48;nan
18652;BME280;9455;54.302;10.124;2022-08-23T12:06:50;101838.47;;;24.65;nan
18652;BME280;9455;54.302;10.124;2022-08-23T12:09:49;101825.72;;;24.51;nan
18652;BME280;9455;54.302;10.124;2022-08-23T12:12:35;101828.03;;;24.48;nan
18652;BME280;9455;54.302;10.124;2022-08-23T12:15:05;101832.38;;;24.63;nan
18652;BME280;9455;54.302;10.124;2022-08-23T12:20:36;101824.75;;;24.59;nan
18652;BME280;9455;54.302;10.124;2022-08-23T12:23:11;101836.88;;;24.77;nan
18652;BME280;9455;54.302;10.124;2022-08-23T12:25:38;101827.25;;;24.81;nan
18652;BME280;9455;54.302;10.124;2022-08-23T12:28:16;101831.28;;;24.92;nan
18652;BME280;9455;54.302;10.124;2022-08-23T12:30:58;101822.22;;;24.85;nan
18652;BME280;9455;54.302;10.124;2022-08-23T12:33:34;101832.38;;;24.97;nan
18652;BME280;9455;54.302;10.124;2022-08-23T12:36:09;101825.88;;;24.98;nan
18652;BME280;9455;54.302;10.124;2022-08-23T12:38:46;101814.16;;;25.04;nan
18652;BME280;9455;54.302;10.124;2022-08-23T12:41:21;101813.72;;;25.01;nan
18652;BME280;9455;54.302;10.124;2022-08-23T12:43:59;101825.13;;;25.17;nan
18652;BME280;9455;54.302;10.124;2022-08-23T12:46:33;101825.78;;;25.19;nan
18652;BME280;9455;54.302;10.124;2022-08-23T12:49:00;101827.66;;;25.12;nan
18652;BME280;9455;54.302;10.124;2022-08-23T12:51:27;101827.44;;;25.14;nan
18652;BME280;9455;54.302;10.124;2022-08-23T12:53:54;101831.47;;;25.24;nan
18652;BME280;9455;54.302;10.124;2022-08-23T12:56:23;101822.31;;;25.38;nan
18652;BME280;9455;54.302;10.124;2022-08-23T12:58:53;101827.16;;;25.36;nan
18652;BME280;9455;54.302;10.124;2022-08-23T13:01:24;101818.97;;;25.36;nan
18652;BME280;9455;54.302;10.124;2022-08-23T13:03:54;101823.44;;;25.50;nan
18652;BME280;9455;54.302;10.124;2022-08-23T13:06:25;101825.91;;;25.45;nan
18652;BME280;9455;54.302;10.124;2022-08-23T13:08:57;101822.97;;;25.47;nan
18652;BME280;9455;54.302;10.124;2022-08-23T13:11:29;101825.09;;;25.51;nan
18652;BME280;9455;54.302;10.124;2022-08-23T13:13:56;101820.31;;;25.66;nan
18652;BME280;9455;54.302;10.124;2022-08-23T13:16:27;101822.44;;;25.64;nan
18652;BME280;9455;54.302;10.124;2022-08-23T13:19:13;101821.59;;;25.70;nan
18652;BME280;9455;54.302;10.124;2022-08-23T13:21:40;101813.63;;;25.75;nan
18652;BME280;9455;54.302;10.124;2022-08-23T13:24:31;101805.22;;;25.70;nan
18652;BME280;9455;54.302;10.124;2022-08-23T13:27:11;101804.19;;;25.84;nan
18652;BME280;9455;54.302;10.124;2022-08-23T13:29:48;101807.94;;;25.83;nan
18652;BME280;9455;54.302;10.124;2022-08-23T13:32:37;101803.97;;;25.92;nan
18652;BME280;9455;54.302;10.124;2022-08-23T13:35:23;101810.34;;;26.06;nan
18652;BME280;9455;54.302;10.124;2022-08-23T13:37:54;101803.81;;;26.00;nan